createdAt,value
2018-06-05T00:00:29.299Z,51.80
2018-06-05T00:02:59.224Z,51.80
2018-06-05T00:05:29.280Z,51.80
2018-06-05T00:07:59.289Z,51.80
2018-06-05T00:10:29.257Z,51.70
2018-06-05T00:12:59.219Z,51.70
2018-06-05T00:15:29.180Z,51.70
2018-06-05T00:17:59.121Z,51.70
2018-06-05T00:20:29.203Z,51.70
2018-06-05T00:22:59.250Z,51.70
2018-06-05T00:25:29.392Z,51.70
2018-06-05T00:27:59.372Z,51.70
2018-06-05T00:30:29.333Z,51.60
2018-06-05T00:32:59.261Z,51.70
2018-06-05T00:35:29.166Z,51.60
2018-06-05T00:37:59.153Z,51.60
2018-06-05T00:40:28.938Z,51.60
2018-06-05T00:42:58.967Z,51.60
2018-06-05T00:45:28.960Z,51.60
2018-06-05T00:47:58.931Z,51.60
2018-06-05T00:50:28.911Z,51.60
2018-06-05T00:52:58.943Z,51.60
2018-06-05T00:55:28.943Z,51.60
2018-06-05T00:57:58.893Z,51.60
2018-06-05T01:00:28.810Z,51.60
2018-06-05T01:02:58.831Z,51.50
2018-06-05T01:05:28.782Z,51.50
2018-06-05T01:07:58.770Z,51.50
2018-06-05T01:10:28.650Z,51.60
2018-06-05T01:12:58.585Z,51.50
2018-06-05T01:15:28.810Z,51.50
2018-06-05T01:17:58.710Z,51.40
2018-06-05T01:20:28.705Z,51.40
2018-06-05T01:22:58.857Z,51.40
2018-06-05T01:25:29.020Z,51.40
2018-06-05T01:27:58.965Z,51.40
2018-06-05T01:30:28.896Z,51.40
2018-06-05T01:32:59.023Z,51.40
2018-06-05T01:35:29.013Z,51.30
2018-06-05T01:37:59.074Z,51.30
2018-06-05T01:40:28.999Z,51.30
2018-06-05T01:42:59.029Z,51.20
2018-06-05T01:47:59.384Z,51.30
2018-06-05T01:50:29.632Z,51.10
2018-06-05T01:52:59.551Z,51.10
2018-06-05T01:55:29.851Z,51.00
2018-06-05T01:57:59.911Z,51.00
2018-06-05T02:00:29.984Z,50.90
2018-06-05T02:03:00.123Z,50.90
2018-06-05T02:05:30.152Z,50.90
2018-06-05T02:08:00.194Z,50.90
2018-06-05T02:10:30.356Z,50.90
2018-06-05T02:13:00.300Z,50.80
2018-06-05T02:15:30.442Z,50.80
2018-06-05T02:18:00.437Z,50.80
2018-06-05T02:20:30.702Z,50.80
2018-06-05T02:23:00.677Z,50.80
2018-06-05T02:25:30.733Z,50.80
2018-06-05T02:28:00.777Z,50.80
2018-06-05T02:30:30.917Z,50.80
2018-06-05T02:33:01.124Z,50.80
2018-06-05T02:35:31.157Z,50.70
2018-06-05T02:38:01.077Z,50.70
2018-06-05T02:40:31.272Z,50.70
2018-06-05T02:43:01.215Z,50.70
2018-06-05T02:45:31.321Z,50.70
2018-06-05T02:48:01.440Z,50.70
2018-06-05T02:50:31.439Z,50.70
2018-06-05T02:53:01.436Z,50.60
2018-06-05T02:55:31.307Z,50.60
2018-06-05T02:58:01.409Z,50.60
2018-06-05T03:00:31.358Z,50.50
2018-06-05T03:03:01.368Z,50.50
2018-06-05T03:05:31.453Z,50.50
2018-06-05T03:08:01.442Z,50.50
2018-06-05T03:10:31.494Z,50.40
2018-06-05T03:13:01.528Z,50.40
2018-06-05T03:15:31.620Z,50.40
2018-06-05T03:18:01.612Z,50.30
2018-06-05T03:20:31.592Z,50.40
2018-06-05T03:23:01.840Z,50.30
2018-06-05T03:25:31.978Z,50.30
2018-06-05T03:28:01.913Z,50.20
2018-06-05T03:30:31.995Z,50.20
2018-06-05T03:33:02.080Z,50.20
2018-06-05T03:35:32.142Z,50.80
2018-06-05T03:38:02.290Z,50.10
2018-06-05T03:40:32.413Z,50.10
2018-06-05T03:43:02.365Z,50.10
2018-06-05T03:45:32.527Z,50.00
2018-06-05T03:48:02.582Z,50.00
2018-06-05T03:50:32.612Z,50.00
2018-06-05T03:53:02.712Z,49.90
2018-06-05T03:55:32.813Z,49.90
2018-06-05T03:58:02.721Z,49.90
2018-06-05T04:00:32.909Z,49.90
2018-06-05T04:03:02.833Z,49.80
2018-06-05T04:05:32.843Z,49.80
2018-06-05T04:08:02.812Z,49.80
2018-06-05T04:10:32.706Z,49.80
2018-06-05T04:13:02.668Z,49.70
2018-06-05T04:15:32.689Z,49.70
2018-06-05T04:18:02.524Z,49.70
2018-06-05T04:20:32.606Z,50.00
2018-06-05T04:23:02.718Z,49.70
2018-06-05T04:25:32.526Z,49.60
2018-06-05T04:28:03.313Z,48.80
2018-06-05T04:30:32.995Z,48.20
2018-06-05T04:33:02.600Z,48.00
2018-06-05T04:35:32.323Z,48.50
2018-06-05T04:38:01.993Z,48.20
2018-06-05T04:40:31.681Z,48.40
2018-06-05T04:43:01.396Z,48.30
2018-06-05T04:45:31.131Z,48.20
2018-06-05T04:48:00.936Z,48.10
2018-06-05T04:50:30.592Z,48.10
2018-06-05T04:53:00.733Z,48.10
2018-06-05T04:55:30.391Z,48.10
2018-06-05T04:58:00.153Z,48.00
2018-06-05T05:00:28.989Z,47.90
2018-06-05T05:02:57.798Z,47.90
2018-06-05T05:05:26.606Z,47.90
2018-06-05T05:07:55.425Z,47.90
2018-06-05T05:10:24.226Z,47.70
2018-06-05T05:12:53.041Z,47.60
2018-06-05T05:15:21.865Z,47.60
2018-06-05T05:17:50.758Z,47.50
2018-06-05T05:20:19.582Z,47.40
2018-06-05T05:22:48.400Z,47.40
2018-06-05T05:25:17.230Z,47.30
2018-06-05T05:27:46.073Z,47.30
2018-06-05T05:30:14.906Z,47.20
2018-06-05T05:32:43.734Z,47.50
2018-06-05T05:35:12.559Z,47.10
2018-06-05T05:37:41.390Z,47.00
2018-06-05T05:40:10.185Z,47.10
2018-06-05T05:42:39.001Z,47.10
2018-06-05T05:45:07.803Z,47.00
2018-06-05T05:47:36.706Z,47.10
2018-06-05T05:50:05.555Z,47.00
2018-06-05T05:52:34.370Z,46.90
2018-06-05T05:55:03.223Z,46.90
2018-06-05T05:57:32.046Z,46.80
2018-06-05T06:00:00.917Z,46.90
2018-06-05T06:02:29.746Z,46.90
2018-06-05T06:04:58.561Z,46.80
2018-06-05T06:07:27.405Z,46.80
2018-06-05T06:09:56.237Z,46.90
2018-06-05T06:12:25.068Z,46.90
2018-06-05T06:14:53.905Z,46.80
2018-06-05T06:17:22.723Z,46.80
2018-06-05T06:19:51.578Z,46.70
2018-06-05T06:22:20.834Z,46.70
2018-06-05T06:24:49.662Z,46.80
2018-06-05T06:27:18.670Z,46.60
2018-06-05T06:29:47.965Z,46.60
2018-06-05T06:32:18.103Z,46.60
2018-06-05T06:34:47.950Z,46.60
2018-06-05T06:37:18.733Z,46.50
2018-06-05T06:39:47.875Z,46.50
2018-06-05T06:42:18.661Z,46.50
2018-06-05T06:44:47.930Z,46.50
2018-06-05T06:47:18.425Z,46.50
2018-06-05T06:49:48.083Z,46.50
2018-06-05T06:52:18.180Z,46.50
2018-06-05T06:54:48.562Z,46.60
2018-06-05T06:57:19.332Z,46.70
2018-06-05T06:59:50.865Z,46.60
2018-06-05T07:02:21.586Z,46.70
2018-06-05T07:04:52.265Z,46.60
2018-06-05T07:07:22.863Z,46.60
2018-06-05T07:09:54.389Z,46.10
2018-06-05T07:12:26.108Z,46.70
2018-06-05T07:14:58.420Z,46.80
2018-06-05T07:17:32.538Z,46.80
2018-06-05T07:20:03.788Z,47.00
2018-06-05T07:22:35.557Z,47.00
2018-06-05T07:25:06.943Z,47.00
2018-06-05T07:27:38.188Z,47.00
2018-06-05T07:30:10.543Z,47.10
2018-06-05T07:32:42.051Z,47.00
2018-06-05T07:35:13.876Z,46.90
2018-06-05T07:37:44.713Z,46.90
2018-06-05T07:40:15.353Z,46.80
2018-06-05T07:42:46.896Z,46.90
2018-06-05T07:45:17.012Z,46.80
2018-06-05T07:47:48.365Z,46.60
2018-06-05T07:50:18.526Z,46.70
2018-06-05T07:52:48.661Z,46.70
2018-06-05T07:55:18.807Z,46.80
2018-06-05T07:57:48.730Z,46.70
2018-06-05T08:00:18.659Z,46.80
2018-06-05T08:02:48.333Z,46.80
2018-06-05T08:05:17.864Z,46.90
2018-06-05T08:07:47.860Z,46.80
2018-06-05T08:12:45.721Z,47.00
2018-06-05T08:15:14.765Z,46.70
2018-06-05T08:17:44.000Z,46.70
2018-06-05T08:20:13.111Z,46.60
2018-06-05T08:22:53.735Z,46.50
2018-06-05T08:25:22.766Z,46.70
2018-06-05T08:27:51.656Z,46.40
2018-06-05T08:30:20.470Z,46.40
2018-06-05T08:32:49.302Z,46.50
2018-06-05T08:35:18.383Z,46.60
2018-06-05T08:37:47.673Z,46.60
2018-06-05T08:40:16.822Z,46.60
2018-06-05T08:42:45.909Z,46.70
2018-06-05T08:45:14.993Z,46.50
2018-06-05T08:47:44.177Z,46.50
2018-06-05T08:50:13.361Z,46.60
2018-06-05T08:52:42.429Z,46.60
2018-06-05T08:55:11.499Z,46.50
2018-06-05T08:57:40.582Z,46.50
2018-06-05T09:00:09.711Z,46.40
2018-06-05T09:02:38.759Z,46.40
2018-06-05T09:05:07.897Z,46.50
2018-06-05T09:07:37.040Z,46.40
2018-06-05T09:10:06.066Z,46.40
2018-06-05T09:12:35.213Z,46.40
2018-06-05T09:15:04.336Z,46.40
2018-06-05T09:17:33.225Z,46.50
2018-06-05T09:20:02.344Z,46.50
2018-06-05T09:22:31.177Z,46.60
2018-06-05T09:25:00.004Z,46.70
2018-06-05T09:27:29.123Z,46.80
2018-06-05T09:29:58.165Z,46.80
2018-06-05T09:32:27.310Z,46.80
2018-06-05T09:34:56.401Z,46.90
2018-06-05T09:37:25.238Z,46.80
2018-06-05T09:39:54.342Z,46.90
2018-06-05T09:42:23.159Z,47.00
2018-06-05T09:44:52.021Z,46.80
2018-06-05T09:47:20.874Z,46.50
2018-06-05T09:49:49.737Z,46.30
2018-06-05T09:52:18.557Z,46.30
2018-06-05T09:54:47.439Z,46.30
2018-06-05T09:57:16.484Z,46.40
2018-06-05T09:59:45.591Z,46.70
2018-06-05T10:02:14.814Z,46.90
2018-06-05T10:04:43.898Z,46.90
2018-06-05T10:07:12.948Z,46.90
2018-06-05T10:09:41.994Z,46.90
2018-06-05T10:12:11.045Z,47.00
2018-06-05T10:14:40.058Z,47.00
2018-06-05T10:17:08.931Z,47.00
2018-06-05T10:19:38.049Z,47.10
2018-06-05T10:22:07.263Z,47.10
2018-06-05T10:24:36.089Z,47.10
2018-06-05T10:29:33.377Z,47.30
2018-06-05T10:32:02.222Z,47.10
2018-06-05T10:34:31.169Z,47.20
2018-06-05T10:37:00.250Z,47.20
2018-06-05T10:39:29.385Z,47.30
2018-06-05T10:41:58.377Z,47.30
2018-06-05T10:44:27.465Z,47.30
2018-06-05T10:46:56.378Z,47.30
2018-06-05T10:49:25.443Z,47.40
2018-06-05T10:51:54.418Z,47.40
2018-06-05T10:54:24.219Z,47.50
2018-06-05T10:56:54.069Z,47.60
2018-06-05T10:59:24.048Z,47.50
2018-06-05T11:01:53.159Z,47.50
2018-06-05T11:04:22.165Z,47.40
2018-06-05T11:06:52.466Z,47.30
2018-06-05T11:09:24.051Z,47.20
2018-06-05T11:11:54.025Z,46.80
2018-06-05T11:14:23.734Z,46.40
2018-06-05T11:16:53.434Z,46.20
2018-06-05T11:19:23.251Z,46.00
2018-06-05T11:21:53.217Z,46.10
2018-06-05T11:24:23.153Z,46.00
2018-06-05T11:26:52.920Z,46.00
2018-06-05T11:29:22.985Z,46.10
2018-06-05T11:31:53.118Z,46.10
2018-06-05T11:34:22.861Z,46.10
2018-06-05T11:36:52.854Z,46.10
2018-06-05T11:39:22.015Z,46.20
2018-06-05T11:41:50.827Z,46.40
2018-06-05T11:44:19.756Z,46.20
2018-06-05T11:46:48.847Z,46.40
2018-06-05T11:49:17.844Z,46.60
2018-06-05T11:51:47.090Z,46.60
2018-06-05T11:54:16.158Z,46.50
2018-06-05T11:56:45.231Z,46.60
2018-06-05T11:59:14.348Z,46.60
2018-06-05T12:01:43.276Z,46.60
2018-06-05T12:04:12.153Z,46.60
2018-06-05T12:06:41.001Z,46.50
2018-06-05T12:09:09.823Z,46.30
2018-06-05T12:11:38.650Z,46.20
2018-06-05T12:14:07.705Z,46.10
2018-06-05T12:16:36.805Z,46.20
2018-06-05T12:19:05.858Z,46.10
2018-06-05T12:21:35.093Z,46.20
2018-06-05T12:24:04.147Z,46.30
2018-06-05T12:26:33.152Z,46.30
2018-06-05T12:29:02.177Z,46.30
2018-06-05T12:31:31.221Z,46.40
2018-06-05T12:34:00.418Z,46.40
2018-06-05T12:36:29.563Z,46.40
2018-06-05T12:38:59.581Z,46.40
2018-06-05T12:41:30.270Z,46.40
2018-06-05T12:43:59.356Z,46.40
2018-06-05T12:46:28.466Z,46.40
2018-06-05T12:48:57.498Z,46.50
2018-06-05T12:51:26.432Z,46.50
2018-06-05T12:53:55.482Z,46.50
2018-06-05T12:56:24.461Z,46.60
2018-06-05T12:58:53.461Z,46.60
2018-06-05T13:01:22.524Z,46.60
2018-06-05T13:03:51.615Z,46.60
2018-06-05T13:06:20.715Z,46.60
2018-06-05T13:08:49.898Z,46.70
2018-06-05T13:11:23.571Z,46.70
2018-06-05T13:13:55.754Z,46.80
2018-06-05T13:18:57.967Z,46.90
2018-06-05T13:21:26.845Z,46.70
2018-06-05T13:23:56.050Z,46.70
2018-06-05T13:26:25.180Z,46.70
2018-06-05T13:28:54.346Z,46.70
2018-06-05T13:31:24.326Z,46.70
2018-06-05T13:33:54.211Z,46.80
2018-06-05T13:36:24.156Z,46.80
2018-06-05T13:38:54.126Z,46.90
2018-06-05T13:41:24.066Z,47.00
2018-06-05T13:43:54.027Z,47.00
2018-06-05T13:46:23.846Z,47.00
2018-06-05T13:48:53.789Z,47.10
2018-06-05T13:51:23.746Z,47.10
2018-06-05T13:53:53.499Z,47.20
2018-06-05T13:56:22.566Z,47.80
2018-06-05T13:58:51.792Z,47.20
2018-06-05T14:01:20.671Z,47.20
2018-06-05T14:03:49.479Z,47.30
2018-06-05T14:06:18.324Z,47.40
2018-06-05T14:08:47.163Z,47.40
2018-06-05T14:11:16.056Z,47.50
2018-06-05T14:13:44.850Z,47.50
2018-06-05T14:16:13.741Z,47.50
2018-06-05T14:18:42.939Z,47.60
2018-06-05T14:21:12.054Z,47.60
2018-06-05T14:23:41.083Z,47.60
2018-06-05T14:26:10.202Z,47.40
2018-06-05T14:28:39.309Z,47.80
2018-06-05T14:31:08.405Z,47.80
2018-06-05T14:33:37.400Z,48.60
2018-06-05T14:36:06.474Z,48.00
2018-06-05T14:38:35.545Z,48.10
2018-06-05T14:41:04.757Z,48.20
2018-06-05T14:43:33.836Z,48.30
2018-06-05T14:46:02.941Z,48.30
2018-06-05T14:48:31.738Z,48.40
2018-06-05T14:51:00.728Z,48.40
2018-06-05T14:53:29.804Z,48.40
2018-06-05T14:55:58.909Z,48.60
2018-06-05T14:58:27.950Z,48.80
2018-06-05T15:00:57.009Z,48.80
2018-06-05T15:03:26.011Z,48.90
2018-06-05T15:05:55.076Z,48.90
2018-06-05T15:08:24.318Z,49.00
2018-06-05T15:10:53.433Z,49.00
2018-06-05T15:13:22.631Z,49.70
2018-06-05T15:15:51.723Z,49.10
2018-06-05T15:18:20.703Z,49.10
2018-06-05T15:20:49.808Z,49.10
2018-06-05T15:23:18.883Z,49.20
2018-06-05T15:25:48.094Z,49.20
2018-06-05T15:28:17.077Z,49.20
2018-06-05T15:30:46.138Z,49.20
2018-06-05T15:33:15.073Z,49.20
2018-06-05T15:35:44.227Z,49.20
2018-06-05T15:38:13.167Z,49.20
2018-06-05T15:40:42.207Z,49.40
2018-06-05T15:43:11.340Z,49.50
2018-06-05T15:45:40.401Z,50.00
2018-06-05T15:48:09.541Z,50.10
2018-06-05T15:50:38.604Z,50.20
2018-06-05T15:53:07.717Z,50.10
2018-06-05T15:55:36.787Z,50.00
2018-06-05T15:58:05.919Z,50.00
2018-06-05T16:00:35.121Z,50.00
2018-06-05T16:03:04.263Z,50.10
2018-06-05T16:05:33.590Z,50.20
2018-06-05T16:08:02.739Z,50.40
2018-06-05T16:10:32.417Z,50.50
2018-06-05T16:13:01.499Z,50.70
2018-06-05T16:15:31.181Z,50.80
2018-06-05T16:18:01.574Z,51.10
2018-06-05T16:22:59.538Z,51.20
2018-06-05T16:25:28.697Z,51.00
2018-06-05T16:27:57.859Z,51.00
2018-06-05T16:32:55.865Z,50.90
2018-06-05T16:35:24.963Z,50.70
2018-06-05T16:37:54.083Z,50.60
2018-06-05T16:40:23.151Z,50.50
2018-06-05T16:42:52.215Z,50.40
2018-06-05T16:45:21.043Z,50.40
2018-06-05T16:47:50.230Z,50.40
2018-06-05T16:50:19.060Z,50.40
2018-06-05T16:52:48.270Z,50.50
2018-06-05T16:55:17.099Z,50.50
2018-06-05T16:57:46.230Z,50.50
2018-06-05T17:00:15.401Z,51.10
2018-06-05T17:02:44.506Z,50.50
2018-06-05T17:05:13.606Z,50.60
2018-06-05T17:07:42.962Z,50.60
2018-06-05T17:10:12.099Z,50.50
2018-06-05T17:12:41.186Z,50.40
2018-06-05T17:15:10.229Z,50.40
2018-06-05T17:17:39.690Z,50.40
2018-06-05T17:20:08.774Z,50.30
2018-06-05T17:22:37.611Z,50.30
2018-06-05T17:25:06.626Z,50.30
2018-06-05T17:27:35.650Z,50.20
2018-06-05T17:30:04.755Z,49.70
2018-06-05T17:32:33.839Z,50.20
2018-06-05T17:35:03.050Z,50.20
2018-06-05T17:37:32.238Z,50.30
2018-06-05T17:40:01.430Z,50.40
2018-06-05T17:42:30.641Z,50.40
2018-06-05T17:44:59.718Z,50.50
2018-06-05T17:47:28.524Z,50.50
2018-06-05T17:49:57.525Z,50.50
2018-06-05T17:52:26.409Z,50.40
2018-06-05T17:54:55.498Z,50.50
2018-06-05T17:57:24.582Z,50.50
2018-06-05T17:59:53.749Z,50.70
2018-06-05T18:02:23.325Z,50.70
2018-06-05T18:04:52.513Z,50.70
2018-06-05T18:07:21.314Z,50.70
2018-06-05T18:09:50.375Z,50.80
2018-06-05T18:12:19.284Z,50.80
2018-06-05T18:14:48.479Z,50.90
2018-06-05T18:17:24.472Z,50.90
2018-06-05T18:19:53.453Z,51.20
2018-06-05T18:22:22.514Z,51.00
2018-06-05T18:24:51.750Z,51.00
2018-06-05T18:27:20.790Z,50.90
2018-06-05T18:29:49.884Z,50.80
2018-06-05T18:32:18.987Z,50.80
2018-06-05T18:34:49.529Z,50.70
2018-06-05T18:37:18.838Z,50.80
2018-06-05T18:39:48.020Z,50.70
2018-06-05T18:42:17.110Z,51.30
2018-06-05T18:44:46.614Z,50.80
2018-06-05T18:47:15.654Z,50.80
2018-06-05T18:49:44.722Z,50.80
2018-06-05T18:52:13.911Z,50.80
2018-06-05T18:54:43.245Z,50.90
2018-06-05T18:57:12.835Z,50.80
2018-06-05T18:59:41.919Z,51.40
2018-06-05T19:02:10.928Z,50.80
2018-06-05T19:04:40.022Z,50.70
2018-06-05T19:07:09.074Z,50.60
2018-06-05T19:09:38.681Z,50.60
2018-06-05T19:12:07.789Z,50.70
2018-06-05T19:14:38.229Z,50.60
2018-06-05T19:17:07.466Z,50.80
2018-06-05T19:19:36.538Z,50.80
2018-06-05T19:22:05.606Z,51.00
2018-06-05T19:24:34.954Z,51.30
2018-06-05T19:27:04.307Z,51.50
2018-06-05T19:29:33.498Z,51.70
2018-06-05T19:32:02.669Z,51.80
2018-06-05T19:34:31.550Z,51.90
2018-06-05T19:37:00.354Z,52.10
2018-06-05T19:39:30.813Z,52.20
2018-06-05T19:42:00.783Z,52.30
2018-06-05T19:44:29.672Z,52.30
2018-06-05T19:46:59.367Z,52.40
2018-06-05T19:49:29.361Z,52.50
2018-06-05T19:51:59.307Z,52.60
2018-06-05T19:54:28.941Z,52.70
2018-06-05T19:56:58.619Z,52.80
2018-06-05T19:59:28.607Z,52.80
2018-06-05T20:01:57.414Z,52.80
2018-06-05T20:04:26.513Z,52.80
2018-06-05T20:06:55.554Z,53.40
2018-06-05T20:09:24.648Z,52.80
2018-06-05T20:11:53.746Z,52.80
2018-06-05T20:14:22.842Z,52.70
2018-06-05T20:16:51.934Z,52.50
2018-06-05T20:19:22.094Z,52.40
2018-06-05T20:21:51.158Z,52.30
2018-06-05T20:24:20.178Z,52.10
2018-06-05T20:26:49.984Z,52.00
2018-06-05T20:29:20.130Z,51.80
2018-06-05T20:31:49.164Z,51.70
2018-06-05T20:34:18.269Z,51.40
2018-06-05T20:36:47.463Z,51.40
2018-06-05T20:39:16.669Z,51.20
2018-06-05T20:41:45.798Z,51.00
2018-06-05T20:44:14.855Z,50.90
2018-06-05T20:46:44.194Z,50.70
2018-06-05T20:49:13.278Z,50.60
2018-06-05T20:51:42.286Z,50.40
2018-06-05T20:54:11.330Z,50.20
2018-06-05T20:56:41.174Z,50.10
2018-06-05T20:59:10.179Z,50.00
2018-06-05T21:01:41.424Z,49.90
2018-06-05T21:04:12.738Z,49.90
2018-06-05T21:06:42.961Z,49.80
2018-06-05T21:09:13.268Z,49.60
2018-06-05T21:11:43.403Z,49.40
2018-06-05T21:14:14.552Z,49.30
2018-06-05T21:16:45.442Z,49.10
2018-06-05T21:19:15.636Z,48.80
2018-06-05T21:21:46.617Z,48.50
2018-06-05T21:24:16.613Z,48.50
2018-06-05T21:26:46.933Z,48.20
2018-06-05T21:29:17.323Z,48.00
2018-06-05T21:31:48.178Z,47.90
2018-06-05T21:34:18.181Z,47.70
2018-06-05T21:36:48.178Z,47.60
2018-06-05T21:39:18.269Z,47.60
2018-06-05T21:41:48.400Z,47.50
2018-06-05T21:44:18.509Z,47.50
2018-06-05T21:46:48.470Z,47.50
2018-06-05T21:49:18.863Z,47.70
2018-06-05T21:51:49.039Z,47.70
2018-06-05T21:54:21.299Z,47.90
2018-06-05T21:56:53.670Z,47.80
2018-06-05T21:59:24.918Z,47.90
2018-06-05T22:01:54.814Z,47.90
2018-06-05T22:04:27.043Z,47.90
2018-06-05T22:06:58.100Z,48.10
2018-06-05T22:09:28.062Z,47.60
2018-06-05T22:11:57.992Z,48.00
2018-06-05T22:14:28.526Z,48.00
2018-06-05T22:16:58.795Z,48.20
2018-06-05T22:19:29.115Z,48.10
2018-06-05T22:22:00.720Z,48.10
2018-06-05T22:24:30.817Z,48.10
2018-06-05T22:27:02.564Z,48.80
2018-06-05T22:29:34.981Z,48.10
2018-06-05T22:32:05.088Z,48.10
2018-06-05T22:34:35.504Z,48.10
2018-06-05T22:37:06.016Z,48.70
2018-06-05T22:39:35.925Z,48.30
2018-06-05T22:42:05.882Z,48.10
2018-06-05T22:44:37.103Z,48.10
2018-06-05T22:47:07.312Z,48.20
2018-06-05T22:49:37.153Z,48.20
2018-06-05T22:52:07.208Z,48.10
2018-06-05T22:54:37.264Z,48.80
2018-06-05T22:57:07.242Z,48.30
2018-06-05T22:59:37.213Z,48.20
2018-06-05T23:02:07.253Z,48.10
2018-06-05T23:04:37.223Z,48.00
2018-06-05T23:07:07.302Z,48.00
2018-06-05T23:09:37.436Z,48.00
2018-06-05T23:12:07.505Z,48.10
2018-06-05T23:14:37.409Z,48.00
2018-06-05T23:17:07.430Z,48.00
2018-06-05T23:19:37.453Z,48.10
2018-06-05T23:22:07.479Z,48.20
2018-06-05T23:24:37.303Z,48.50
2018-06-05T23:27:07.363Z,48.30
2018-06-05T23:29:37.396Z,48.20
2018-06-05T23:32:07.694Z,48.20
2018-06-05T23:34:37.719Z,48.10
2018-06-05T23:37:07.653Z,48.20
2018-06-05T23:39:37.707Z,48.20
2018-06-05T23:42:07.599Z,48.20
2018-06-05T23:44:37.548Z,48.20
2018-06-05T23:47:07.476Z,48.10
2018-06-05T23:49:37.528Z,48.10
2018-06-05T23:52:07.636Z,48.00
2018-06-05T23:54:37.744Z,47.90
2018-06-05T23:57:07.831Z,47.80
2018-06-05T23:59:37.818Z,47.80
